Terminal Aerodrome Forecast
Issued by NWS

Home | Current Version | Previous Version | Text Only | Print | Product List | Glossary On
Versions: 1 2 3 4 5 6 7 8 9 10 11 12 13 14 15 16 17 18
000
FTAK31 PAJN 300535
TAFAKT
TAF
PAKT 300535Z 3006/3106 14005KT P6SM FEW010 BKN025 OVC070
     FM301200 13005KT P6SM VCSH OVC035
     FM301500 13012G20KT P6SM -RA OVC025
     FM301800 14018G30KT P6SM -RA OVC025 WS020/14050KT
     FM302100 15030G45KT 5SM RA BR OVC020 WS020/16060KT
     FM310000 15020G30KT 6SM -RA BR BKN020 OVC030 WS020/22030KT
     FM310300 12015KT P6SM -SHRA BKN025 OVC040
      AMD LTD TO CLD VIS AND WIND 3006/3015=

USA.gov is the U.S. government's official web portal to all federal, state and local government web resources and services.